sensor_id;sensor_type;location;lat;lon;timestamp;P1;durP1;ratioP1;P2;durP2;ratioP2
2756;SDS011;1386;50.862;6.494;2023-09-30T00:01:44;5.00;;;3.37;;
2756;SDS011;1386;50.862;6.494;2023-09-30T00:04:30;11.30;;;4.17;;
2756;SDS011;1386;50.862;6.494;2023-09-30T00:07:19;9.33;;;4.87;;
2756;SDS011;1386;50.862;6.494;2023-09-30T00:10:05;5.67;;;3.77;;
2756;SDS011;1386;50.862;6.494;2023-09-30T00:12:57;8.07;;;4.33;;
2756;SDS011;1386;50.862;6.494;2023-09-30T00:15:44;7.80;;;5.13;;
2756;SDS011;1386;50.862;6.494;2023-09-30T00:18:43;7.60;;;4.17;;
2756;SDS011;1386;50.862;6.494;2023-09-30T00:21:24;10.87;;;4.50;;
2756;SDS011;1386;50.862;6.494;2023-09-30T00:27:23;10.17;;;4.60;;
2756;SDS011;1386;50.862;6.494;2023-09-30T00:30:12;6.60;;;4.20;;
2756;SDS011;1386;50.862;6.494;2023-09-30T00:33:13;8.13;;;4.77;;
2756;SDS011;1386;50.862;6.494;2023-09-30T00:36:15;7.47;;;4.10;;
2756;SDS011;1386;50.862;6.494;2023-09-30T00:39:11;6.43;;;4.23;;
2756;SDS011;1386;50.862;6.494;2023-09-30T00:44:48;6.53;;;4.50;;
2756;SDS011;1386;50.862;6.494;2023-09-30T00:47:37;8.23;;;4.30;;
2756;SDS011;1386;50.862;6.494;2023-09-30T00:50:28;7.30;;;4.03;;
2756;SDS011;1386;50.862;6.494;2023-09-30T00:55:58;8.67;;;4.33;;
2756;SDS011;1386;50.862;6.494;2023-09-30T00:58:34;6.93;;;4.20;;
2756;SDS011;1386;50.862;6.494;2023-09-30T01:01:45;7.70;;;4.57;;
2756;SDS011;1386;50.862;6.494;2023-09-30T01:04:42;6.67;;;4.37;;
2756;SDS011;1386;50.862;6.494;2023-09-30T01:07:28;6.37;;;4.63;;
2756;SDS011;1386;50.862;6.494;2023-09-30T01:10:32;7.67;;;4.03;;
2756;SDS011;1386;50.862;6.494;2023-09-30T01:13:18;9.00;;;3.87;;
2756;SDS011;1386;50.862;6.494;2023-09-30T01:19:21;10.53;;;4.30;;
2756;SDS011;1386;50.862;6.494;2023-09-30T01:25:46;12.50;;;5.00;;
2756;SDS011;1386;50.862;6.494;2023-09-30T01:31:36;8.93;;;4.13;;
2756;SDS011;1386;50.862;6.494;2023-09-30T01:38:08;8.30;;;4.57;;
2756;SDS011;1386;50.862;6.494;2023-09-30T01:41:21;12.17;;;4.60;;
2756;SDS011;1386;50.862;6.494;2023-09-30T01:44:23;6.50;;;4.93;;
2756;SDS011;1386;50.862;6.494;2023-09-30T01:47:23;6.63;;;3.97;;
2756;SDS011;1386;50.862;6.494;2023-09-30T01:50:35;6.37;;;4.07;;
2756;SDS011;1386;50.862;6.494;2023-09-30T01:53:38;5.67;;;4.00;;
2756;SDS011;1386;50.862;6.494;2023-09-30T01:56:16;6.67;;;4.13;;
2756;SDS011;1386;50.862;6.494;2023-09-30T01:58:54;7.73;;;4.40;;
2756;SDS011;1386;50.862;6.494;2023-09-30T02:01:35;9.00;;;5.53;;
2756;SDS011;1386;50.862;6.494;2023-09-30T02:04:45;6.67;;;3.93;;
2756;SDS011;1386;50.862;6.494;2023-09-30T02:07:40;7.57;;;4.00;;
2756;SDS011;1386;50.862;6.494;2023-09-30T02:10:37;10.40;;;4.70;;
2756;SDS011;1386;50.862;6.494;2023-09-30T02:13:36;6.00;;;4.30;;
2756;SDS011;1386;50.862;6.494;2023-09-30T02:17:00;7.03;;;5.00;;
2756;SDS011;1386;50.862;6.494;2023-09-30T02:20:04;7.50;;;4.40;;
2756;SDS011;1386;50.862;6.494;2023-09-30T02:23:23;8.27;;;5.57;;
2756;SDS011;1386;50.862;6.494;2023-09-30T02:30:18;7.40;;;4.70;;
2756;SDS011;1386;50.862;6.494;2023-09-30T02:32:46;13.87;;;5.50;;
2756;SDS011;1386;50.862;6.494;2023-09-30T02:35:30;9.60;;;4.37;;
2756;SDS011;1386;50.862;6.494;2023-09-30T02:38:17;7.13;;;4.50;;
2756;SDS011;1386;50.862;6.494;2023-09-30T02:41:48;6.93;;;4.43;;
2756;SDS011;1386;50.862;6.494;2023-09-30T02:44:32;7.60;;;5.00;;
2756;SDS011;1386;50.862;6.494;2023-09-30T02:47:32;7.70;;;4.43;;
2756;SDS011;1386;50.862;6.494;2023-09-30T02:51:52;8.97;;;5.27;;
2756;SDS011;1386;50.862;6.494;2023-09-30T03:14:00;9.37;;;5.30;;
2756;SDS011;1386;50.862;6.494;2023-09-30T03:17:15;6.83;;;5.20;;
2756;SDS011;1386;50.862;6.494;2023-09-30T03:20:22;7.00;;;5.10;;
2756;SDS011;1386;50.862;6.494;2023-09-30T03:43:01;11.93;;;6.00;;
2756;SDS011;1386;50.862;6.494;2023-09-30T04:04:01;12.13;;;8.20;;
2756;SDS011;1386;50.862;6.494;2023-09-30T04:07:28;10.80;;;7.90;;
2756;SDS011;1386;50.862;6.494;2023-09-30T04:10:41;14.60;;;8.47;;
2756;SDS011;1386;50.862;6.494;2023-09-30T04:13:39;17.90;;;8.03;;
2756;SDS011;1386;50.862;6.494;2023-09-30T04:19:54;16.80;;;9.03;;
2756;SDS011;1386;50.862;6.494;2023-09-30T04:23:30;10.57;;;8.17;;
2756;SDS011;1386;50.862;6.494;2023-09-30T04:26:31;14.53;;;10.83;;
2756;SDS011;1386;50.862;6.494;2023-09-30T04:30:08;15.00;;;9.33;;
2756;SDS011;1386;50.862;6.494;2023-09-30T04:33:09;13.80;;;8.80;;
2756;SDS011;1386;50.862;6.494;2023-09-30T04:49:22;16.20;;;9.60;;
2756;SDS011;1386;50.862;6.494;2023-09-30T04:53:38;12.17;;;9.03;;
2756;SDS011;1386;50.862;6.494;2023-09-30T04:59:00;16.60;;;9.40;;
2756;SDS011;1386;50.862;6.494;2023-09-30T05:05:38;19.53;;;11.23;;
2756;SDS011;1386;50.862;6.494;2023-09-30T05:08:35;12.00;;;9.37;;
2756;SDS011;1386;50.862;6.494;2023-09-30T05:14:59;15.30;;;10.57;;
2756;SDS011;1386;50.862;6.494;2023-09-30T05:17:58;15.23;;;9.87;;
2756;SDS011;1386;50.862;6.494;2023-09-30T06:52:35;13.43;;;8.77;;
2756;SDS011;1386;50.862;6.494;2023-09-30T06:55:04;15.00;;;10.70;;
2756;SDS011;1386;50.862;6.494;2023-09-30T06:57:33;12.97;;;10.10;;
2756;SDS011;1386;50.862;6.494;2023-09-30T07:00:00;12.93;;;9.57;;
2756;SDS011;1386;50.862;6.494;2023-09-30T07:02:29;11.60;;;8.47;;
2756;SDS011;1386;50.862;6.494;2023-09-30T07:04:56;13.47;;;10.30;;
2756;SDS011;1386;50.862;6.494;2023-09-30T07:07:24;16.60;;;10.97;;
2756;SDS011;1386;50.862;6.494;2023-09-30T07:09:53;13.10;;;9.50;;
2756;SDS011;1386;50.862;6.494;2023-09-30T07:12:23;16.50;;;9.53;;
2756;SDS011;1386;50.862;6.494;2023-09-30T07:14:56;11.97;;;9.27;;
2756;SDS011;1386;50.862;6.494;2023-09-30T07:17:35;11.97;;;9.23;;
2756;SDS011;1386;50.862;6.494;2023-09-30T07:20:05;12.00;;;9.40;;
2756;SDS011;1386;50.862;6.494;2023-09-30T07:22:44;14.67;;;9.70;;
2756;SDS011;1386;50.862;6.494;2023-09-30T07:25:21;12.10;;;9.40;;
2756;SDS011;1386;50.862;6.494;2023-09-30T07:28:05;12.17;;;8.97;;
2756;SDS011;1386;50.862;6.494;2023-09-30T07:30:59;14.97;;;10.00;;
2756;SDS011;1386;50.862;6.494;2023-09-30T07:33:58;12.80;;;8.50;;
2756;SDS011;1386;50.862;6.494;2023-09-30T07:36:26;10.97;;;8.07;;
2756;SDS011;1386;50.862;6.494;2023-09-30T07:39:06;10.37;;;7.60;;
2756;SDS011;1386;50.862;6.494;2023-09-30T08:01:38;8.60;;;7.33;;
2756;SDS011;1386;50.862;6.494;2023-09-30T08:04:05;9.13;;;7.80;;
2756;SDS011;1386;50.862;6.494;2023-09-30T08:06:32;10.33;;;7.53;;
2756;SDS011;1386;50.862;6.494;2023-09-30T08:09:00;10.10;;;7.23;;
2756;SDS011;1386;50.862;6.494;2023-09-30T08:11:28;13.00;;;7.87;;
2756;SDS011;1386;50.862;6.494;2023-09-30T08:13:59;11.23;;;6.90;;
2756;SDS011;1386;50.862;6.494;2023-09-30T08:16:31;15.73;;;7.23;;
2756;SDS011;1386;50.862;6.494;2023-09-30T08:19:03;12.90;;;6.53;;
2756;SDS011;1386;50.862;6.494;2023-09-30T08:21:30;8.60;;;5.83;;
2756;SDS011;1386;50.862;6.494;2023-09-30T08:23:57;7.63;;;6.53;;
2756;SDS011;1386;50.862;6.494;2023-09-30T08:26:24;7.33;;;5.83;;
2756;SDS011;1386;50.862;6.494;2023-09-30T08:28:51;9.93;;;5.50;;
2756;SDS011;1386;50.862;6.494;2023-09-30T08:31:17;8.27;;;5.97;;
2756;SDS011;1386;50.862;6.494;2023-09-30T08:33:46;7.20;;;5.33;;
2756;SDS011;1386;50.862;6.494;2023-09-30T08:36:15;12.30;;;4.80;;
2756;SDS011;1386;50.862;6.494;2023-09-30T08:38:42;7.03;;;4.77;;
2756;SDS011;1386;50.862;6.494;2023-09-30T08:41:09;7.50;;;4.30;;
2756;SDS011;1386;50.862;6.494;2023-09-30T08:43:36;7.33;;;4.10;;
2756;SDS011;1386;50.862;6.494;2023-09-30T08:46:05;7.13;;;4.40;;
2756;SDS011;1386;50.862;6.494;2023-09-30T08:48:32;5.83;;;3.97;;
2756;SDS011;1386;50.862;6.494;2023-09-30T08:51:00;6.87;;;3.67;;
2756;SDS011;1386;50.862;6.494;2023-09-30T08:53:30;7.73;;;4.87;;
2756;SDS011;1386;50.862;6.494;2023-09-30T08:55:58;6.57;;;4.77;;
2756;SDS011;1386;50.862;6.494;2023-09-30T08:58:29;7.83;;;3.90;;
2756;SDS011;1386;50.862;6.494;2023-09-30T09:00:57;8.00;;;4.17;;
2756;SDS011;1386;50.862;6.494;2023-09-30T09:03:27;6.83;;;4.20;;
2756;SDS011;1386;50.862;6.494;2023-09-30T09:05:55;8.83;;;4.20;;
2756;SDS011;1386;50.862;6.494;2023-09-30T09:08:22;7.13;;;3.80;;
2756;SDS011;1386;50.862;6.494;2023-09-30T09:10:54;6.20;;;4.17;;
2756;SDS011;1386;50.862;6.494;2023-09-30T09:13:22;6.70;;;3.57;;
2756;SDS011;1386;50.862;6.494;2023-09-30T09:15:50;4.73;;;2.97;;
2756;SDS011;1386;50.862;6.494;2023-09-30T09:18:31;6.03;;;2.93;;
2756;SDS011;1386;50.862;6.494;2023-09-30T09:21:08;6.83;;;3.60;;
2756;SDS011;1386;50.862;6.494;2023-09-30T09:23:39;5.90;;;3.60;;
2756;SDS011;1386;50.862;6.494;2023-09-30T09:26:09;5.80;;;2.97;;
2756;SDS011;1386;50.862;6.494;2023-09-30T09:28:36;5.37;;;2.53;;
2756;SDS011;1386;50.862;6.494;2023-09-30T09:33:49;7.87;;;2.43;;
2756;SDS011;1386;50.862;6.494;2023-09-30T09:36:17;3.20;;;2.10;;
2756;SDS011;1386;50.862;6.494;2023-09-30T09:38:45;4.63;;;2.30;;
2756;SDS011;1386;50.862;6.494;2023-09-30T09:41:14;2.70;;;1.90;;
2756;SDS011;1386;50.862;6.494;2023-09-30T09:43:42;7.17;;;2.23;;
2756;SDS011;1386;50.862;6.494;2023-09-30T09:46:09;6.40;;;2.20;;
2756;SDS011;1386;50.862;6.494;2023-09-30T09:48:37;6.50;;;2.63;;
2756;SDS011;1386;50.862;6.494;2023-09-30T09:51:04;7.60;;;2.80;;
2756;SDS011;1386;50.862;6.494;2023-09-30T09:53:34;4.53;;;2.60;;
2756;SDS011;1386;50.862;6.494;2023-09-30T09:56:03;4.73;;;2.50;;
2756;SDS011;1386;50.862;6.494;2023-09-30T09:58:40;5.70;;;3.10;;
2756;SDS011;1386;50.862;6.494;2023-09-30T10:01:09;6.33;;;2.60;;
2756;SDS011;1386;50.862;6.494;2023-09-30T10:03:39;5.37;;;2.40;;
2756;SDS011;1386;50.862;6.494;2023-09-30T10:06:15;6.10;;;2.40;;
2756;SDS011;1386;50.862;6.494;2023-09-30T10:08:53;7.57;;;2.80;;
2756;SDS011;1386;50.862;6.494;2023-09-30T10:11:27;5.80;;;2.30;;
2756;SDS011;1386;50.862;6.494;2023-09-30T10:13:58;3.93;;;2.27;;
2756;SDS011;1386;50.862;6.494;2023-09-30T10:19:14;4.40;;;2.00;;
2756;SDS011;1386;50.862;6.494;2023-09-30T10:24:55;8.97;;;3.03;;
2756;SDS011;1386;50.862;6.494;2023-09-30T10:27:29;5.03;;;2.37;;
2756;SDS011;1386;50.862;6.494;2023-09-30T10:29:58;4.37;;;2.40;;
2756;SDS011;1386;50.862;6.494;2023-09-30T10:41:07;3.73;;;2.30;;
2756;SDS011;1386;50.862;6.494;2023-09-30T10:43:35;4.97;;;2.37;;
2756;SDS011;1386;50.862;6.494;2023-09-30T10:46:04;4.33;;;2.23;;
2756;SDS011;1386;50.862;6.494;2023-09-30T10:49:10;4.63;;;2.30;;
2756;SDS011;1386;50.862;6.494;2023-09-30T10:51:42;6.67;;;2.57;;
2756;SDS011;1386;50.862;6.494;2023-09-30T10:54:11;5.07;;;2.23;;
2756;SDS011;1386;50.862;6.494;2023-09-30T10:56:39;4.57;;;2.37;;
2756;SDS011;1386;50.862;6.494;2023-09-30T10:59:06;6.43;;;2.80;;
2756;SDS011;1386;50.862;6.494;2023-09-30T11:01:36;7.70;;;3.20;;
2756;SDS011;1386;50.862;6.494;2023-09-30T11:04:04;3.97;;;2.23;;
2756;SDS011;1386;50.862;6.494;2023-09-30T11:06:33;6.80;;;2.40;;
2756;SDS011;1386;50.862;6.494;2023-09-30T11:09:01;4.77;;;2.53;;
2756;SDS011;1386;50.862;6.494;2023-09-30T11:11:38;5.63;;;2.20;;
2756;SDS011;1386;50.862;6.494;2023-09-30T11:14:18;3.70;;;2.57;;
2756;SDS011;1386;50.862;6.494;2023-09-30T11:16:47;5.17;;;2.57;;
2756;SDS011;1386;50.862;6.494;2023-09-30T11:19:14;5.13;;;2.83;;
2756;SDS011;1386;50.862;6.494;2023-09-30T11:21:42;5.13;;;2.30;;
2756;SDS011;1386;50.862;6.494;2023-09-30T11:24:10;5.37;;;2.77;;
2756;SDS011;1386;50.862;6.494;2023-09-30T11:26:37;7.47;;;3.20;;
2756;SDS011;1386;50.862;6.494;2023-09-30T11:29:06;5.87;;;2.20;;
2756;SDS011;1386;50.862;6.494;2023-09-30T11:31:36;8.27;;;2.50;;
2756;SDS011;1386;50.862;6.494;2023-09-30T11:34:05;3.93;;;2.27;;
2756;SDS011;1386;50.862;6.494;2023-09-30T11:36:33;4.10;;;2.13;;
2756;SDS011;1386;50.862;6.494;2023-09-30T11:39:02;8.00;;;2.40;;
2756;SDS011;1386;50.862;6.494;2023-09-30T11:41:34;8.10;;;2.90;;
2756;SDS011;1386;50.862;6.494;2023-09-30T11:44:04;4.47;;;2.80;;
2756;SDS011;1386;50.862;6.494;2023-09-30T11:46:32;7.30;;;3.27;;
2756;SDS011;1386;50.862;6.494;2023-09-30T11:49:25;4.23;;;2.20;;
2756;SDS011;1386;50.862;6.494;2023-09-30T11:51:53;5.40;;;3.03;;
2756;SDS011;1386;50.862;6.494;2023-09-30T11:54:20;6.60;;;3.17;;
2756;SDS011;1386;50.862;6.494;2023-09-30T11:56:48;5.17;;;2.90;;
2756;SDS011;1386;50.862;6.494;2023-09-30T11:59:17;5.70;;;2.90;;
2756;SDS011;1386;50.862;6.494;2023-09-30T12:01:47;4.73;;;2.87;;
2756;SDS011;1386;50.862;6.494;2023-09-30T12:04:14;5.10;;;2.53;;
2756;SDS011;1386;50.862;6.494;2023-09-30T12:06:46;4.60;;;2.57;;
2756;SDS011;1386;50.862;6.494;2023-09-30T12:09:13;8.53;;;3.57;;
2756;SDS011;1386;50.862;6.494;2023-09-30T12:11:47;8.03;;;3.53;;
2756;SDS011;1386;50.862;6.494;2023-09-30T12:14:14;6.53;;;2.90;;
2756;SDS011;1386;50.862;6.494;2023-09-30T12:16:41;5.13;;;3.20;;
2756;SDS011;1386;50.862;6.494;2023-09-30T12:19:10;7.20;;;3.40;;
2756;SDS011;1386;50.862;6.494;2023-09-30T12:21:38;6.83;;;2.77;;
2756;SDS011;1386;50.862;6.494;2023-09-30T12:24:07;4.50;;;2.70;;
2756;SDS011;1386;50.862;6.494;2023-09-30T12:26:35;5.97;;;2.90;;
2756;SDS011;1386;50.862;6.494;2023-09-30T12:29:03;5.93;;;3.07;;
2756;SDS011;1386;50.862;6.494;2023-09-30T12:31:30;4.23;;;2.73;;
2756;SDS011;1386;50.862;6.494;2023-09-30T12:33:58;5.53;;;2.67;;
2756;SDS011;1386;50.862;6.494;2023-09-30T12:36:27;7.33;;;3.60;;
2756;SDS011;1386;50.862;6.494;2023-09-30T12:38:54;7.93;;;3.07;;
2756;SDS011;1386;50.862;6.494;2023-09-30T12:41:22;4.70;;;3.10;;
2756;SDS011;1386;50.862;6.494;2023-09-30T12:43:49;5.80;;;2.97;;
2756;SDS011;1386;50.862;6.494;2023-09-30T12:46:16;7.53;;;2.97;;
2756;SDS011;1386;50.862;6.494;2023-09-30T12:48:45;5.27;;;3.33;;
2756;SDS011;1386;50.862;6.494;2023-09-30T12:51:13;3.70;;;2.60;;
2756;SDS011;1386;50.862;6.494;2023-09-30T12:53:40;5.07;;;2.70;;
2756;SDS011;1386;50.862;6.494;2023-09-30T12:56:07;5.90;;;2.77;;
2756;SDS011;1386;50.862;6.494;2023-09-30T12:58:38;4.97;;;2.97;;
2756;SDS011;1386;50.862;6.494;2023-09-30T13:01:05;4.63;;;2.30;;
2756;SDS011;1386;50.862;6.494;2023-09-30T13:03:36;4.60;;;2.53;;
2756;SDS011;1386;50.862;6.494;2023-09-30T13:06:03;4.20;;;3.10;;
2756;SDS011;1386;50.862;6.494;2023-09-30T13:08:32;6.07;;;3.33;;
2756;SDS011;1386;50.862;6.494;2023-09-30T13:11:01;4.77;;;2.70;;
2756;SDS011;1386;50.862;6.494;2023-09-30T13:13:29;5.80;;;3.20;;
2756;SDS011;1386;50.862;6.494;2023-09-30T13:15:57;5.97;;;3.50;;
2756;SDS011;1386;50.862;6.494;2023-09-30T13:18:24;4.63;;;3.03;;
2756;SDS011;1386;50.862;6.494;2023-09-30T13:20:50;4.07;;;2.70;;
2756;SDS011;1386;50.862;6.494;2023-09-30T13:23:18;4.33;;;2.60;;
2756;SDS011;1386;50.862;6.494;2023-09-30T13:25:45;6.50;;;3.10;;
2756;SDS011;1386;50.862;6.494;2023-09-30T13:28:12;7.33;;;3.13;;
2756;SDS011;1386;50.862;6.494;2023-09-30T13:30:40;9.20;;;3.10;;
2756;SDS011;1386;50.862;6.494;2023-09-30T13:33:08;5.07;;;3.17;;
2756;SDS011;1386;50.862;6.494;2023-09-30T13:35:35;5.10;;;3.17;;
2756;SDS011;1386;50.862;6.494;2023-09-30T13:38:03;4.13;;;2.90;;
2756;SDS011;1386;50.862;6.494;2023-09-30T13:40:30;6.37;;;3.17;;
2756;SDS011;1386;50.862;6.494;2023-09-30T13:42:57;4.40;;;2.93;;
2756;SDS011;1386;50.862;6.494;2023-09-30T13:45:25;4.47;;;3.00;;
2756;SDS011;1386;50.862;6.494;2023-09-30T13:47:53;7.10;;;2.97;;
2756;SDS011;1386;50.862;6.494;2023-09-30T13:50:24;8.63;;;3.60;;
2756;SDS011;1386;50.862;6.494;2023-09-30T13:52:51;9.73;;;3.73;;
2756;SDS011;1386;50.862;6.494;2023-09-30T13:55:18;9.27;;;3.73;;
2756;SDS011;1386;50.862;6.494;2023-09-30T13:57:45;7.43;;;3.23;;
2756;SDS011;1386;50.862;6.494;2023-09-30T14:00:12;6.13;;;2.90;;
2756;SDS011;1386;50.862;6.494;2023-09-30T14:02:41;8.53;;;4.90;;
2756;SDS011;1386;50.862;6.494;2023-09-30T14:05:08;8.60;;;4.00;;
2756;SDS011;1386;50.862;6.494;2023-09-30T14:07:38;6.50;;;3.70;;
2756;SDS011;1386;50.862;6.494;2023-09-30T14:10:05;5.27;;;3.67;;
2756;SDS011;1386;50.862;6.494;2023-09-30T14:12:35;5.20;;;3.40;;
2756;SDS011;1386;50.862;6.494;2023-09-30T14:15:02;6.90;;;3.53;;
2756;SDS011;1386;50.862;6.494;2023-09-30T14:17:30;7.50;;;3.13;;
2756;SDS011;1386;50.862;6.494;2023-09-30T14:19:58;6.60;;;3.30;;
2756;SDS011;1386;50.862;6.494;2023-09-30T14:22:25;5.23;;;2.83;;
2756;SDS011;1386;50.862;6.494;2023-09-30T14:24:53;5.20;;;2.97;;
2756;SDS011;1386;50.862;6.494;2023-09-30T14:27:20;6.20;;;3.40;;
2756;SDS011;1386;50.862;6.494;2023-09-30T14:29:47;10.43;;;3.53;;
2756;SDS011;1386;50.862;6.494;2023-09-30T14:32:14;7.00;;;3.53;;
2756;SDS011;1386;50.862;6.494;2023-09-30T14:34:41;6.20;;;4.07;;
2756;SDS011;1386;50.862;6.494;2023-09-30T14:37:08;7.93;;;3.60;;
2756;SDS011;1386;50.862;6.494;2023-09-30T14:39:34;5.93;;;3.30;;
2756;SDS011;1386;50.862;6.494;2023-09-30T14:42:03;5.50;;;3.60;;
2756;SDS011;1386;50.862;6.494;2023-09-30T14:44:30;4.80;;;2.93;;
2756;SDS011;1386;50.862;6.494;2023-09-30T14:46:56;4.30;;;3.03;;
2756;SDS011;1386;50.862;6.494;2023-09-30T14:49:23;8.73;;;3.73;;
2756;SDS011;1386;50.862;6.494;2023-09-30T14:51:50;5.00;;;3.40;;
2756;SDS011;1386;50.862;6.494;2023-09-30T14:54:17;5.30;;;3.10;;
2756;SDS011;1386;50.862;6.494;2023-09-30T14:56:44;10.80;;;3.77;;
2756;SDS011;1386;50.862;6.494;2023-09-30T14:59:12;6.37;;;3.00;;
2756;SDS011;1386;50.862;6.494;2023-09-30T15:01:39;6.53;;;2.67;;
2756;SDS011;1386;50.862;6.494;2023-09-30T15:04:06;6.30;;;3.20;;
2756;SDS011;1386;50.862;6.494;2023-09-30T15:06:33;5.73;;;3.20;;
2756;SDS011;1386;50.862;6.494;2023-09-30T15:09:00;5.40;;;2.43;;
2756;SDS011;1386;50.862;6.494;2023-09-30T15:11:29;6.97;;;3.53;;
2756;SDS011;1386;50.862;6.494;2023-09-30T15:13:56;4.80;;;3.00;;
2756;SDS011;1386;50.862;6.494;2023-09-30T15:16:24;7.10;;;3.60;;
2756;SDS011;1386;50.862;6.494;2023-09-30T15:18:51;4.70;;;2.73;;
2756;SDS011;1386;50.862;6.494;2023-09-30T15:21:18;5.10;;;2.80;;
2756;SDS011;1386;50.862;6.494;2023-09-30T15:23:45;6.57;;;2.93;;
2756;SDS011;1386;50.862;6.494;2023-09-30T15:26:12;4.97;;;2.50;;
2756;SDS011;1386;50.862;6.494;2023-09-30T15:28:40;7.43;;;3.17;;
2756;SDS011;1386;50.862;6.494;2023-09-30T15:31:09;5.90;;;2.97;;
2756;SDS011;1386;50.862;6.494;2023-09-30T15:33:38;4.57;;;2.70;;
2756;SDS011;1386;50.862;6.494;2023-09-30T15:36:08;3.67;;;2.53;;
2756;SDS011;1386;50.862;6.494;2023-09-30T15:38:35;4.20;;;2.40;;
2756;SDS011;1386;50.862;6.494;2023-09-30T15:41:02;5.40;;;2.70;;
2756;SDS011;1386;50.862;6.494;2023-09-30T15:43:29;6.63;;;2.60;;
2756;SDS011;1386;50.862;6.494;2023-09-30T15:45:57;4.80;;;2.67;;
2756;SDS011;1386;50.862;6.494;2023-09-30T15:48:25;4.90;;;2.80;;
2756;SDS011;1386;50.862;6.494;2023-09-30T15:50:53;4.67;;;2.87;;
2756;SDS011;1386;50.862;6.494;2023-09-30T15:53:20;6.20;;;2.90;;
2756;SDS011;1386;50.862;6.494;2023-09-30T15:55:46;8.20;;;2.60;;
2756;SDS011;1386;50.862;6.494;2023-09-30T15:58:13;7.50;;;3.17;;
2756;SDS011;1386;50.862;6.494;2023-09-30T16:00:41;10.70;;;4.27;;
2756;SDS011;1386;50.862;6.494;2023-09-30T16:03:08;8.80;;;3.77;;
2756;SDS011;1386;50.862;6.494;2023-09-30T16:05:36;4.93;;;2.60;;
2756;SDS011;1386;50.862;6.494;2023-09-30T16:08:06;5.00;;;2.80;;
2756;SDS011;1386;50.862;6.494;2023-09-30T16:10:36;5.60;;;2.50;;
2756;SDS011;1386;50.862;6.494;2023-09-30T16:13:03;4.90;;;2.60;;
2756;SDS011;1386;50.862;6.494;2023-09-30T16:15:32;6.30;;;2.80;;
2756;SDS011;1386;50.862;6.494;2023-09-30T16:18:03;6.13;;;2.97;;
2756;SDS011;1386;50.862;6.494;2023-09-30T16:20:30;5.47;;;2.40;;
2756;SDS011;1386;50.862;6.494;2023-09-30T16:22:57;5.37;;;2.73;;
2756;SDS011;1386;50.862;6.494;2023-09-30T16:25:29;6.27;;;2.87;;
2756;SDS011;1386;50.862;6.494;2023-09-30T16:27:56;5.20;;;2.53;;
2756;SDS011;1386;50.862;6.494;2023-09-30T16:30:22;5.77;;;2.53;;
2756;SDS011;1386;50.862;6.494;2023-09-30T16:32:49;5.07;;;2.10;;
2756;SDS011;1386;50.862;6.494;2023-09-30T16:35:16;3.37;;;2.50;;
2756;SDS011;1386;50.862;6.494;2023-09-30T16:37:43;6.93;;;2.50;;
2756;SDS011;1386;50.862;6.494;2023-09-30T16:40:10;3.80;;;2.80;;
2756;SDS011;1386;50.862;6.494;2023-09-30T16:42:39;4.30;;;3.00;;
2756;SDS011;1386;50.862;6.494;2023-09-30T16:45:06;4.20;;;2.10;;
2756;SDS011;1386;50.862;6.494;2023-09-30T16:47:34;3.47;;;2.50;;
2756;SDS011;1386;50.862;6.494;2023-09-30T16:50:01;4.23;;;2.60;;
2756;SDS011;1386;50.862;6.494;2023-09-30T16:59:29;4.97;;;2.47;;
2756;SDS011;1386;50.862;6.494;2023-09-30T17:01:57;4.43;;;3.13;;
2756;SDS011;1386;50.862;6.494;2023-09-30T17:04:41;4.53;;;3.23;;
2756;SDS011;1386;50.862;6.494;2023-09-30T17:07:29;7.40;;;3.50;;
2756;SDS011;1386;50.862;6.494;2023-09-30T17:09:56;4.20;;;3.17;;
2756;SDS011;1386;50.862;6.494;2023-09-30T17:12:23;4.67;;;2.60;;
2756;SDS011;1386;50.862;6.494;2023-09-30T17:14:52;7.80;;;3.60;;
2756;SDS011;1386;50.862;6.494;2023-09-30T17:17:33;5.03;;;3.40;;
2756;SDS011;1386;50.862;6.494;2023-09-30T17:26:47;6.20;;;3.43;;
2756;SDS011;1386;50.862;6.494;2023-09-30T17:29:27;7.93;;;3.23;;
2756;SDS011;1386;50.862;6.494;2023-09-30T17:39:06;7.40;;;3.00;;
2756;SDS011;1386;50.862;6.494;2023-09-30T17:41:36;5.10;;;2.90;;
2756;SDS011;1386;50.862;6.494;2023-09-30T17:45:01;6.07;;;3.43;;
2756;SDS011;1386;50.862;6.494;2023-09-30T17:47:33;9.00;;;2.53;;
2756;SDS011;1386;50.862;6.494;2023-09-30T17:53:49;7.30;;;3.07;;
2756;SDS011;1386;50.862;6.494;2023-09-30T17:56:20;7.70;;;3.00;;
2756;SDS011;1386;50.862;6.494;2023-09-30T17:58:50;5.97;;;3.07;;
2756;SDS011;1386;50.862;6.494;2023-09-30T18:01:18;4.17;;;2.80;;
2756;SDS011;1386;50.862;6.494;2023-09-30T18:03:47;4.23;;;3.00;;
2756;SDS011;1386;50.862;6.494;2023-09-30T18:06:16;3.93;;;3.10;;
2756;SDS011;1386;50.862;6.494;2023-09-30T18:08:43;6.47;;;2.63;;
2756;SDS011;1386;50.862;6.494;2023-09-30T18:11:11;4.83;;;3.80;;
2756;SDS011;1386;50.862;6.494;2023-09-30T18:13:39;6.70;;;3.07;;
2756;SDS011;1386;50.862;6.494;2023-09-30T18:16:06;7.73;;;3.90;;
2756;SDS011;1386;50.862;6.494;2023-09-30T18:18:34;5.47;;;2.73;;
2756;SDS011;1386;50.862;6.494;2023-09-30T18:21:01;6.00;;;3.10;;
2756;SDS011;1386;50.862;6.494;2023-09-30T18:23:30;4.70;;;3.00;;
2756;SDS011;1386;50.862;6.494;2023-09-30T18:25:57;3.43;;;2.63;;
2756;SDS011;1386;50.862;6.494;2023-09-30T18:28:25;5.60;;;3.00;;
2756;SDS011;1386;50.862;6.494;2023-09-30T18:30:54;7.13;;;3.80;;
2756;SDS011;1386;50.862;6.494;2023-09-30T18:33:20;6.97;;;3.13;;
2756;SDS011;1386;50.862;6.494;2023-09-30T18:35:47;5.67;;;2.90;;
2756;SDS011;1386;50.862;6.494;2023-09-30T18:38:15;8.63;;;4.00;;
2756;SDS011;1386;50.862;6.494;2023-09-30T18:40:43;7.30;;;3.50;;
2756;SDS011;1386;50.862;6.494;2023-09-30T18:43:11;7.73;;;4.37;;
2756;SDS011;1386;50.862;6.494;2023-09-30T18:45:39;5.50;;;3.47;;
2756;SDS011;1386;50.862;6.494;2023-09-30T18:48:06;6.60;;;3.87;;
2756;SDS011;1386;50.862;6.494;2023-09-30T18:50:37;7.00;;;4.10;;
2756;SDS011;1386;50.862;6.494;2023-09-30T18:53:06;4.97;;;3.83;;
2756;SDS011;1386;50.862;6.494;2023-09-30T18:55:34;5.13;;;3.53;;
2756;SDS011;1386;50.862;6.494;2023-09-30T18:58:04;5.20;;;3.40;;
2756;SDS011;1386;50.862;6.494;2023-09-30T19:00:36;6.63;;;3.80;;
2756;SDS011;1386;50.862;6.494;2023-09-30T19:03:10;7.50;;;4.60;;
2756;SDS011;1386;50.862;6.494;2023-09-30T19:05:43;7.70;;;3.83;;
2756;SDS011;1386;50.862;6.494;2023-09-30T19:08:19;8.23;;;4.03;;
2756;SDS011;1386;50.862;6.494;2023-09-30T19:10:47;6.77;;;4.50;;
2756;SDS011;1386;50.862;6.494;2023-09-30T19:13:16;5.40;;;4.13;;
2756;SDS011;1386;50.862;6.494;2023-09-30T19:15:43;5.47;;;3.83;;
2756;SDS011;1386;50.862;6.494;2023-09-30T19:18:11;7.50;;;3.87;;
2756;SDS011;1386;50.862;6.494;2023-09-30T19:20:38;5.77;;;4.10;;
2756;SDS011;1386;50.862;6.494;2023-09-30T19:23:08;5.97;;;4.57;;
2756;SDS011;1386;50.862;6.494;2023-09-30T19:29:02;5.67;;;3.97;;
2756;SDS011;1386;50.862;6.494;2023-09-30T19:31:29;10.50;;;5.23;;
2756;SDS011;1386;50.862;6.494;2023-09-30T19:33:56;6.50;;;4.47;;
2756;SDS011;1386;50.862;6.494;2023-09-30T19:36:23;5.73;;;4.53;;
2756;SDS011;1386;50.862;6.494;2023-09-30T19:38:50;6.10;;;4.77;;
2756;SDS011;1386;50.862;6.494;2023-09-30T19:41:17;8.10;;;5.60;;
2756;SDS011;1386;50.862;6.494;2023-09-30T19:43:47;6.63;;;4.90;;
2756;SDS011;1386;50.862;6.494;2023-09-30T19:49:00;10.13;;;5.27;;
2756;SDS011;1386;50.862;6.494;2023-09-30T19:51:27;6.20;;;4.93;;
2756;SDS011;1386;50.862;6.494;2023-09-30T19:53:54;8.27;;;4.90;;
2756;SDS011;1386;50.862;6.494;2023-09-30T19:56:21;6.63;;;5.13;;
2756;SDS011;1386;50.862;6.494;2023-09-30T19:58:50;8.03;;;5.37;;
2756;SDS011;1386;50.862;6.494;2023-09-30T20:01:16;8.27;;;5.90;;
2756;SDS011;1386;50.862;6.494;2023-09-30T20:03:46;8.87;;;6.87;;
2756;SDS011;1386;50.862;6.494;2023-09-30T20:06:19;12.67;;;7.10;;
2756;SDS011;1386;50.862;6.494;2023-09-30T20:08:48;8.93;;;6.70;;
2756;SDS011;1386;50.862;6.494;2023-09-30T20:11:16;10.33;;;6.60;;
2756;SDS011;1386;50.862;6.494;2023-09-30T20:13:46;10.50;;;7.00;;
2756;SDS011;1386;50.862;6.494;2023-09-30T20:16:13;9.33;;;5.90;;
2756;SDS011;1386;50.862;6.494;2023-09-30T20:18:40;8.03;;;6.17;;
2756;SDS011;1386;50.862;6.494;2023-09-30T20:21:08;10.13;;;5.87;;
2756;SDS011;1386;50.862;6.494;2023-09-30T20:26:56;8.23;;;6.00;;
2756;SDS011;1386;50.862;6.494;2023-09-30T20:29:26;9.80;;;6.40;;
2756;SDS011;1386;50.862;6.494;2023-09-30T20:34:57;12.33;;;6.50;;
2756;SDS011;1386;50.862;6.494;2023-09-30T20:37:25;12.00;;;6.00;;